Flight Track Log - Related Links

Times and Time Zones

All times are in EST time to prevent confusion due to time zone crossing. See the CSN6013 flight status page for this flight to view local times or setup timezone preferences in your user account.

Time Position Orientation Groundspeed Altitude Reporting Facility
EST Latitude Longitude Course Direction KTS MPH feet Rate Location/Type
Fri 04:16:00 AM 46.0645 83.5245 309° West  Level Estimated
Fri 04:17:00 AM 46.1154 83.4244 306° West  Level Estimated
Fri 04:18:00 AM 46.1662 83.3241 306° West  Level Estimated
Fri 04:19:00 AM 46.2169 83.2236 306° West  Level Estimated
Fri 04:20:00 AM 46.2675 83.1230 306° West  Level Estimated
Fri 04:21:00 AM 46.3180 83.0221 306° West  Level Estimated
Fri 04:22:00 AM 46.3685 82.9211 306° West  Level Estimated
Fri 04:23:00 AM 46.4188 82.8199 306° West  Level Estimated
Fri 04:24:00 AM 46.4691 82.7185 306° West  Level Estimated
Fri 04:25:00 AM 46.5192 82.6169 306° West  Level Estimated
Fri 04:26:00 AM 46.5693 82.5151 306° West  Level Estimated
Fri 04:27:00 AM 46.6193 82.4131 306° West  Level Estimated
Fri 04:28:00 AM 46.6692 82.3110 305° West  Level Estimated
Fri 04:29:00 AM 46.7190 82.2086 305° West  Level Estimated
Fri 04:30:00 AM 46.7687 82.1061 305° West  Level Estimated
Fri 04:31:00 AM 46.8183 82.0033 305° West  Level Estimated
Fri 04:32:00 AM 46.8678 81.9004 305° West  Level Estimated
Fri 04:33:00 AM 46.9173 81.7973 305° West  Level Estimated
Fri 04:34:00 AM 46.9666 81.6940 305° West  Level Estimated
Fri 04:35:00 AM 47.0159 81.5905 305° West  Level Estimated
Fri 04:36:00 AM 47.0650 81.4868 305° West  Level Estimated
Fri 04:37:00 AM 47.1141 81.3830 305° West  Level Estimated
Fri 04:38:00 AM 47.1631 81.2789 305° West  Level Estimated
Fri 04:39:00 AM 47.2119 81.1747 305° West  Level Estimated
Fri 04:40:00 AM 47.2607 81.0702 305° West  Level Estimated
Fri 04:41:00 AM 47.3094 80.9656 304° West  Level Estimated
Fri 04:42:00 AM 47.3580 80.8607 304° West  Level Estimated
Fri 04:43:00 AM 47.4065 80.7557 304° West  Level Estimated
Fri 04:44:00 AM 47.4549 80.6505 304° West  Level Estimated
Fri 04:45:00 AM 47.5032 80.5451 304° West  Level Estimated
Fri 04:46:00 AM 47.5514 80.4395 304° West  Level Estimated
Fri 04:47:00 AM 47.5995 80.3337 304° West  Level Estimated
Fri 04:48:00 AM 47.6475 80.2277 304° West  Level Estimated
Fri 04:49:00 AM 47.6954 80.1215 304° West  Level Estimated
Fri 04:50:00 AM 47.7432 80.0151 304° West  Level Estimated
Fri 04:51:00 AM 47.7909 79.9086 304° West  Level Estimated
Fri 04:52:00 AM 47.8385 79.8018 304° West  Level Estimated
Fri 04:53:00 AM 47.8861 79.6948 304° West  Level Estimated
Fri 04:54:00 AM 47.9335 79.5877 303° West  Level Estimated
Fri 04:55:00 AM 47.9808 79.4803 303° West  Level Estimated
Fri 04:56:00 AM 48.0280 79.3727 303° West  Level Estimated
Fri 04:57:00 AM 48.0751 79.2650 303° West  Level Estimated
Fri 04:58:00 AM 48.1222 79.1570 303° West  Level Estimated
Fri 04:59:00 AM 48.1691 79.0489 303° West  Level Estimated
Fri 05:00:00 AM 48.2159 78.9405 303° West  Level Estimated
Fri 05:01:00 AM 48.2626 78.8320 303° West  Level Estimated
Fri 05:02:00 AM 48.3092 78.7232 303° West  Level Estimated
Fri 05:03:00 AM 48.3557 78.6143 303° West  Level Estimated
Fri 05:04:00 AM 48.4021 78.5052 303° West  Level Estimated
Fri 05:05:00 AM 48.4484 78.3958 303° West  Level Estimated
Fri 05:06:00 AM 48.4946 78.2863 303° West  Level Estimated
Fri 05:07:00 AM 48.5407 78.1765 302° West  Level Estimated
Fri 05:08:00 AM 48.5867 78.0666 302° West  Level Estimated
Fri 05:09:00 AM 48.6326 77.9565 302° West  Level Estimated
Fri 05:10:00 AM 48.6783 77.8461 302° West  Level Estimated
Fri 05:11:00 AM 48.7240 77.7356 302° West  Level Estimated
Fri 05:12:00 AM 48.7696 77.6248 302° West  Level Estimated
Fri 05:13:00 AM 48.8150 77.5139 302° West  Level Estimated
Fri 05:14:00 AM 48.8604 77.4028 302° West  Level Estimated
Fri 05:15:00 AM 48.9056 77.2914 302° West  Level Estimated
Fri 05:16:00 AM 48.9508 77.1799 302° West  Level Estimated
Fri 05:17:00 AM 48.9958 77.0681 302° West  Level Estimated
Fri 05:18:00 AM 49.0407 76.9562 302° West  Level Estimated
Fri 05:19:00 AM 49.0855 76.8440 301° West  Level Estimated
Fri 05:20:00 AM 49.1302 76.7317 301° West  Level Estimated
Fri 05:21:00 AM 49.1748 76.6191 301° West  Level Estimated
Fri 05:22:00 AM 49.2193 76.5063 301° West  Level Estimated
Fri 05:23:00 AM 49.2637 76.3934 301° West  Level Estimated
Fri 05:24:00 AM 49.3080 76.2802 301° West  Level Estimated
Fri 05:25:00 AM 49.3521 76.1668 301° West  Level Estimated
Fri 05:26:00 AM 49.3962 76.0533 301° West  Level Estimated
Fri 05:27:00 AM 49.4401 75.9395 301° West  Level Estimated
Fri 05:28:00 AM 49.4839 75.8255 301° West  Level Estimated
Fri 05:29:00 AM 49.5276 75.7113 301° West  Level Estimated
Fri 05:30:00 AM 49.5712 75.5969 300° West  Level Estimated
Fri 05:31:00 AM 49.6147 75.4824 300° West  Level Estimated
Fri 05:32:00 AM 49.6581 75.3676 300° West  Level Estimated
Fri 05:33:00 AM 49.7013 75.2526 300° West  Level Estimated
Fri 05:34:00 AM 49.7445 75.1374 300° West  Level Estimated
Fri 05:35:00 AM 49.7875 75.0219 300° West  Level Estimated
Fri 05:36:00 AM 49.8304 74.9063 300° West  Level Estimated
Fri 05:37:00 AM 49.8732 74.7905 300° West  Level Estimated
Fri 05:38:00 AM 49.9159 74.6745 300° West  Level Estimated
Fri 05:39:00 AM 49.9585 74.5582 300° West  Level Estimated
Fri 05:40:00 AM 50.0009 74.4418 300° West  Level Estimated
Fri 05:41:00 AM 50.0433 74.3252 300° West  Level Estimated
Fri 05:42:00 AM 50.0855 74.2083 299° West  Level Estimated
Fri 05:43:00 AM 50.1276 74.0913 299° West  Level Estimated
Fri 05:44:00 AM 50.1696 73.9740 299° West  Level Estimated
Fri 05:45:00 AM 50.2114 73.8565 299° West  Level Estimated
Fri 05:46:00 AM 50.2532 73.7389 299° West  Level Estimated
Fri 05:47:00 AM 50.2948 73.6210 299° West  Level Estimated
Fri 05:48:00 AM 50.3363 73.5029 299° West  Level Estimated
Fri 05:49:00 AM 50.3777 73.3846 299° West  Level Estimated
Fri 05:50:00 AM 50.4189 73.2661 299° West  Level Estimated
Fri 05:51:00 AM 50.4601 73.1474 299° West  Level Estimated
Fri 05:52:00 AM 50.5011 73.0285 299° West  Level Estimated
Fri 05:53:00 AM 50.5420 72.9094 298° West  Level Estimated
Fri 05:54:00 AM 50.5828 72.7901 298° West  Level Estimated
Fri 05:55:00 AM 50.6234 72.6705 298° West  Level Estimated
Fri 05:56:00 AM 50.6640 72.5508 298° West  Level Estimated
Fri 05:57:00 AM 50.7044 72.4309 298° West  Level Estimated
Fri 05:58:00 AM 50.7447 72.3107 298° West  Level Estimated
Fri 05:59:00 AM 50.7848 72.1904 298° West  Level Estimated
Fri 06:00:00 AM 50.8249 72.0698 298° West  Level Estimated
Fri 06:01:00 AM 50.8648 71.9490 298° West  Level Estimated
Fri 06:02:00 AM 50.9046 71.8281 298° West  Level Estimated
Fri 06:03:00 AM 50.9442 71.7069 297° West  Level Estimated
Fri 06:04:00 AM 50.9838 71.5855 297° West  Level Estimated
Fri 06:05:00 AM 51.0222 71.4669 297° West  Level Estimated
Fri 06:06:00 AM 51.0222 71.4669 52° Northeast  Level Estimated
Fri 06:07:00 AM 51.0222 71.4669 52° Northeast  Level Estimated
Fri 06:08:00 AM 51.0222 71.4669 52° Northeast  Level Estimated
Fri 06:09:00 AM 51.0222 71.4669 52° Northeast  Level Estimated

Login

Don't have an account? Register now (free) for customized features, flight alerts, and more!